sensor_id;sensor_type;location;lat;lon;timestamp;P1;durP1;ratioP1;P2;durP2;ratioP2
12774;SDS011;6451;42.630;23.382;2023-05-10T00:01:52;7.87;;;7.07;;
12774;SDS011;6451;42.630;23.382;2023-05-10T00:04:21;7.33;;;6.60;;
12774;SDS011;6451;42.630;23.382;2023-05-10T00:06:52;7.40;;;6.70;;
12774;SDS011;6451;42.630;23.382;2023-05-10T00:09:21;6.77;;;6.17;;
12774;SDS011;6451;42.630;23.382;2023-05-10T00:11:49;6.67;;;6.07;;
12774;SDS011;6451;42.630;23.382;2023-05-10T00:14:16;6.43;;;5.93;;
12774;SDS011;6451;42.630;23.382;2023-05-10T00:16:45;6.60;;;6.10;;
12774;SDS011;6451;42.630;23.382;2023-05-10T00:19:12;7.43;;;6.73;;
12774;SDS011;6451;42.630;23.382;2023-05-10T00:21:39;8.47;;;7.67;;
12774;SDS011;6451;42.630;23.382;2023-05-10T00:24:06;8.60;;;7.80;;
12774;SDS011;6451;42.630;23.382;2023-05-10T00:26:33;8.70;;;7.80;;
12774;SDS011;6451;42.630;23.382;2023-05-10T00:29:00;9.07;;;8.27;;
12774;SDS011;6451;42.630;23.382;2023-05-10T00:31:27;9.43;;;8.53;;
12774;SDS011;6451;42.630;23.382;2023-05-10T00:33:56;8.77;;;7.97;;
12774;SDS011;6451;42.630;23.382;2023-05-10T00:36:23;8.63;;;7.80;;
12774;SDS011;6451;42.630;23.382;2023-05-10T00:38:50;8.63;;;7.67;;
12774;SDS011;6451;42.630;23.382;2023-05-10T00:41:17;8.30;;;7.60;;
12774;SDS011;6451;42.630;23.382;2023-05-10T00:43:44;8.07;;;7.37;;
12774;SDS011;6451;42.630;23.382;2023-05-10T00:46:11;8.00;;;7.23;;
12774;SDS011;6451;42.630;23.382;2023-05-10T00:48:38;8.50;;;7.80;;
12774;SDS011;6451;42.630;23.382;2023-05-10T00:51:07;7.97;;;7.27;;
12774;SDS011;6451;42.630;23.382;2023-05-10T00:53:34;8.20;;;7.40;;
12774;SDS011;6451;42.630;23.382;2023-05-10T00:56:01;7.50;;;6.87;;
12774;SDS011;6451;42.630;23.382;2023-05-10T00:58:29;8.33;;;7.60;;
12774;SDS011;6451;42.630;23.382;2023-05-10T01:00:56;8.63;;;7.93;;
12774;SDS011;6451;42.630;23.382;2023-05-10T01:03:25;10.70;;;8.30;;
12774;SDS011;6451;42.630;23.382;2023-05-10T01:05:52;9.20;;;8.20;;
12774;SDS011;6451;42.630;23.382;2023-05-10T01:08:21;9.27;;;8.37;;
12774;SDS011;6451;42.630;23.382;2023-05-10T01:10:48;8.47;;;7.73;;
12774;SDS011;6451;42.630;23.382;2023-05-10T01:13:17;8.57;;;7.87;;
12774;SDS011;6451;42.630;23.382;2023-05-10T01:15:56;9.43;;;8.40;;
12774;SDS011;6451;42.630;23.382;2023-05-10T01:18:24;9.47;;;8.67;;
12774;SDS011;6451;42.630;23.382;2023-05-10T01:20:53;9.73;;;8.87;;
12774;SDS011;6451;42.630;23.382;2023-05-10T01:23:45;8.50;;;7.80;;
12774;SDS011;6451;42.630;23.382;2023-05-10T01:32:57;8.07;;;7.37;;
12774;SDS011;6451;42.630;23.382;2023-05-10T01:35:33;7.80;;;7.10;;
12774;SDS011;6451;42.630;23.382;2023-05-10T01:38:09;7.23;;;6.53;;
12774;SDS011;6451;42.630;23.382;2023-05-10T01:40:45;7.37;;;6.67;;
12774;SDS011;6451;42.630;23.382;2023-05-10T01:43:17;6.30;;;5.80;;
12774;SDS011;6451;42.630;23.382;2023-05-10T01:45:50;6.40;;;5.80;;
12774;SDS011;6451;42.630;23.382;2023-05-10T01:48:32;6.47;;;5.87;;
12774;SDS011;6451;42.630;23.382;2023-05-10T01:50:59;6.40;;;5.80;;
12774;SDS011;6451;42.630;23.382;2023-05-10T01:53:27;6.10;;;5.53;;
12774;SDS011;6451;42.630;23.382;2023-05-10T01:55:55;5.70;;;5.20;;
12774;SDS011;6451;42.630;23.382;2023-05-10T01:58:32;7.07;;;5.40;;
12774;SDS011;6451;42.630;23.382;2023-05-10T02:01:01;5.97;;;5.47;;
12774;SDS011;6451;42.630;23.382;2023-05-10T02:03:32;6.13;;;5.63;;
12774;SDS011;6451;42.630;23.382;2023-05-10T02:06:02;6.17;;;5.60;;
12774;SDS011;6451;42.630;23.382;2023-05-10T02:08:31;6.53;;;5.57;;
12774;SDS011;6451;42.630;23.382;2023-05-10T02:11:01;6.33;;;5.70;;
12774;SDS011;6451;42.630;23.382;2023-05-10T02:13:30;7.13;;;5.60;;
12774;SDS011;6451;42.630;23.382;2023-05-10T02:16:01;6.17;;;5.33;;
12774;SDS011;6451;42.630;23.382;2023-05-10T02:18:34;7.00;;;5.83;;
12774;SDS011;6451;42.630;23.382;2023-05-10T02:21:02;11.57;;;5.60;;
12774;SDS011;6451;42.630;23.382;2023-05-10T02:23:30;5.60;;;5.00;;
12774;SDS011;6451;42.630;23.382;2023-05-10T02:25:58;5.50;;;4.90;;
12774;SDS011;6451;42.630;23.382;2023-05-10T02:28:27;7.00;;;5.37;;
12774;SDS011;6451;42.630;23.382;2023-05-10T02:30:54;6.40;;;4.90;;
12774;SDS011;6451;42.630;23.382;2023-05-10T02:33:22;5.93;;;4.90;;
12774;SDS011;6451;42.630;23.382;2023-05-10T02:35:51;5.97;;;5.13;;
12774;SDS011;6451;42.630;23.382;2023-05-10T02:38:20;6.90;;;5.20;;
12774;SDS011;6451;42.630;23.382;2023-05-10T02:40:49;6.60;;;5.50;;
12774;SDS011;6451;42.630;23.382;2023-05-10T02:43:18;5.90;;;5.27;;
12774;SDS011;6451;42.630;23.382;2023-05-10T02:45:49;6.30;;;5.50;;
12774;SDS011;6451;42.630;23.382;2023-05-10T02:48:18;7.37;;;5.40;;
12774;SDS011;6451;42.630;23.382;2023-05-10T02:50:45;6.97;;;4.97;;
12774;SDS011;6451;42.630;23.382;2023-05-10T02:53:18;7.77;;;5.70;;
12774;SDS011;6451;42.630;23.382;2023-05-10T02:55:51;6.13;;;5.53;;
12774;SDS011;6451;42.630;23.382;2023-05-10T02:58:19;6.73;;;6.03;;
12774;SDS011;6451;42.630;23.382;2023-05-10T03:00:46;6.93;;;6.00;;
12774;SDS011;6451;42.630;23.382;2023-05-10T03:03:13;6.53;;;5.93;;
12774;SDS011;6451;42.630;23.382;2023-05-10T03:05:40;9.47;;;6.53;;
12774;SDS011;6451;42.630;23.382;2023-05-10T03:08:09;8.93;;;6.17;;
12774;SDS011;6451;42.630;23.382;2023-05-10T03:10:40;7.10;;;6.40;;
12774;SDS011;6451;42.630;23.382;2023-05-10T03:13:16;6.63;;;5.93;;
12774;SDS011;6451;42.630;23.382;2023-05-10T03:15:55;7.47;;;6.10;;
12774;SDS011;6451;42.630;23.382;2023-05-10T03:18:28;8.07;;;5.80;;
12774;SDS011;6451;42.630;23.382;2023-05-10T03:21:01;7.10;;;5.83;;
12774;SDS011;6451;42.630;23.382;2023-05-10T03:23:34;8.13;;;6.00;;
12774;SDS011;6451;42.630;23.382;2023-05-10T03:26:07;6.73;;;6.10;;
12774;SDS011;6451;42.630;23.382;2023-05-10T03:28:36;6.67;;;5.93;;
12774;SDS011;6451;42.630;23.382;2023-05-10T03:31:04;6.20;;;5.60;;
12774;SDS011;6451;42.630;23.382;2023-05-10T03:33:32;5.80;;;5.30;;
12774;SDS011;6451;42.630;23.382;2023-05-10T03:35:59;6.37;;;5.70;;
12774;SDS011;6451;42.630;23.382;2023-05-10T03:38:26;6.17;;;5.50;;
12774;SDS011;6451;42.630;23.382;2023-05-10T03:40:53;7.20;;;5.20;;
12774;SDS011;6451;42.630;23.382;2023-05-10T03:43:22;6.03;;;5.07;;
12774;SDS011;6451;42.630;23.382;2023-05-10T03:45:49;5.23;;;4.80;;
12774;SDS011;6451;42.630;23.382;2023-05-10T03:48:16;5.53;;;4.83;;
12774;SDS011;6451;42.630;23.382;2023-05-10T03:50:43;6.33;;;4.80;;
12774;SDS011;6451;42.630;23.382;2023-05-10T03:53:10;5.20;;;4.70;;
12774;SDS011;6451;42.630;23.382;2023-05-10T03:55:37;5.27;;;4.77;;
12774;SDS011;6451;42.630;23.382;2023-05-10T03:58:04;4.67;;;4.27;;
12774;SDS011;6451;42.630;23.382;2023-05-10T04:03:02;6.17;;;5.23;;
12774;SDS011;6451;42.630;23.382;2023-05-10T04:05:29;6.77;;;4.77;;
12774;SDS011;6451;42.630;23.382;2023-05-10T04:07:56;6.33;;;5.17;;
12774;SDS011;6451;42.630;23.382;2023-05-10T04:10:23;6.23;;;5.17;;
12774;SDS011;6451;42.630;23.382;2023-05-10T04:12:51;6.13;;;5.10;;
12774;SDS011;6451;42.630;23.382;2023-05-10T04:15:18;5.30;;;4.73;;
12774;SDS011;6451;42.630;23.382;2023-05-10T04:17:47;5.17;;;4.70;;
12774;SDS011;6451;42.630;23.382;2023-05-10T04:20:14;7.10;;;5.23;;
12774;SDS011;6451;42.630;23.382;2023-05-10T04:22:41;5.83;;;4.80;;
12774;SDS011;6451;42.630;23.382;2023-05-10T04:25:08;5.33;;;4.73;;
12774;SDS011;6451;42.630;23.382;2023-05-10T04:27:35;5.70;;;5.20;;
12774;SDS011;6451;42.630;23.382;2023-05-10T04:30:03;5.10;;;4.53;;
12774;SDS011;6451;42.630;23.382;2023-05-10T04:32:30;4.97;;;4.40;;
12774;SDS011;6451;42.630;23.382;2023-05-10T04:34:59;5.33;;;4.70;;
12774;SDS011;6451;42.630;23.382;2023-05-10T04:37:28;6.00;;;5.13;;
12774;SDS011;6451;42.630;23.382;2023-05-10T04:39:55;5.73;;;5.13;;
12774;SDS011;6451;42.630;23.382;2023-05-10T04:42:22;7.53;;;4.83;;
12774;SDS011;6451;42.630;23.382;2023-05-10T04:44:58;6.17;;;4.50;;
12774;SDS011;6451;42.630;23.382;2023-05-10T04:47:27;5.73;;;5.10;;
12774;SDS011;6451;42.630;23.382;2023-05-10T04:49:54;5.50;;;5.00;;
12774;SDS011;6451;42.630;23.382;2023-05-10T04:52:23;6.33;;;5.73;;
12774;SDS011;6451;42.630;23.382;2023-05-10T04:54:50;6.13;;;5.53;;
12774;SDS011;6451;42.630;23.382;2023-05-10T04:57:17;5.90;;;5.40;;
12774;SDS011;6451;42.630;23.382;2023-05-10T04:59:44;5.57;;;5.07;;
12774;SDS011;6451;42.630;23.382;2023-05-10T05:02:12;9.13;;;5.60;;
12774;SDS011;6451;42.630;23.382;2023-05-10T05:04:39;7.70;;;5.80;;
12774;SDS011;6451;42.630;23.382;2023-05-10T05:09:42;6.27;;;5.67;;
12774;SDS011;6451;42.630;23.382;2023-05-10T05:12:09;6.17;;;5.30;;
12774;SDS011;6451;42.630;23.382;2023-05-10T05:14:39;6.67;;;5.50;;
12774;SDS011;6451;42.630;23.382;2023-05-10T05:17:06;10.40;;;8.60;;
12774;SDS011;6451;42.630;23.382;2023-05-10T05:19:34;9.37;;;6.47;;
12774;SDS011;6451;42.630;23.382;2023-05-10T05:22:02;8.90;;;6.23;;
12774;SDS011;6451;42.630;23.382;2023-05-10T05:24:28;8.87;;;5.93;;
12774;SDS011;6451;42.630;23.382;2023-05-10T05:26:57;6.40;;;5.80;;
12774;SDS011;6451;42.630;23.382;2023-05-10T05:29:25;9.77;;;6.70;;
12774;SDS011;6451;42.630;23.382;2023-05-10T05:31:52;6.57;;;5.90;;
12774;SDS011;6451;42.630;23.382;2023-05-10T05:34:19;7.57;;;6.23;;
12774;SDS011;6451;42.630;23.382;2023-05-10T05:36:46;6.70;;;6.07;;
12774;SDS011;6451;42.630;23.382;2023-05-10T05:39:13;7.00;;;6.30;;
12774;SDS011;6451;42.630;23.382;2023-05-10T05:41:40;6.57;;;5.97;;
12774;SDS011;6451;42.630;23.382;2023-05-10T05:44:09;7.00;;;6.30;;
12774;SDS011;6451;42.630;23.382;2023-05-10T05:46:37;8.47;;;6.80;;
12774;SDS011;6451;42.630;23.382;2023-05-10T05:49:05;7.03;;;6.33;;
12774;SDS011;6451;42.630;23.382;2023-05-10T05:51:36;8.07;;;7.07;;
12774;SDS011;6451;42.630;23.382;2023-05-10T05:54:02;8.30;;;7.33;;
12774;SDS011;6451;42.630;23.382;2023-05-10T05:56:31;8.40;;;7.60;;
12774;SDS011;6451;42.630;23.382;2023-05-10T05:58:58;9.03;;;8.13;;
12774;SDS011;6451;42.630;23.382;2023-05-10T06:01:26;9.97;;;8.80;;
12774;SDS011;6451;42.630;23.382;2023-05-10T06:03:53;9.53;;;8.30;;
12774;SDS011;6451;42.630;23.382;2023-05-10T06:06:20;10.43;;;9.23;;
12774;SDS011;6451;42.630;23.382;2023-05-10T06:08:47;9.17;;;8.10;;
12774;SDS011;6451;42.630;23.382;2023-05-10T06:11:17;9.43;;;8.20;;
12774;SDS011;6451;42.630;23.382;2023-05-10T06:13:44;10.43;;;8.20;;
12774;SDS011;6451;42.630;23.382;2023-05-10T06:16:11;10.47;;;8.13;;
12774;SDS011;6451;42.630;23.382;2023-05-10T06:18:40;9.60;;;8.57;;
12774;SDS011;6451;42.630;23.382;2023-05-10T06:21:07;10.87;;;9.00;;
12774;SDS011;6451;42.630;23.382;2023-05-10T06:23:34;9.67;;;8.67;;
12774;SDS011;6451;42.630;23.382;2023-05-10T06:26:01;10.10;;;8.90;;
12774;SDS011;6451;42.630;23.382;2023-05-10T06:28:29;11.30;;;9.23;;
12774;SDS011;6451;42.630;23.382;2023-05-10T06:30:57;11.40;;;9.10;;
12774;SDS011;6451;42.630;23.382;2023-05-10T06:33:24;8.93;;;8.03;;
12774;SDS011;6451;42.630;23.382;2023-05-10T06:35:52;9.13;;;8.17;;
12774;SDS011;6451;42.630;23.382;2023-05-10T06:38:20;8.40;;;7.60;;
12774;SDS011;6451;42.630;23.382;2023-05-10T06:40:46;9.60;;;8.63;;
12774;SDS011;6451;42.630;23.382;2023-05-10T06:43:14;9.07;;;8.17;;
12774;SDS011;6451;42.630;23.382;2023-05-10T06:45:41;10.57;;;8.57;;
12774;SDS011;6451;42.630;23.382;2023-05-10T06:48:08;9.20;;;7.50;;
12774;SDS011;6451;42.630;23.382;2023-05-10T06:50:35;9.13;;;8.13;;
12774;SDS011;6451;42.630;23.382;2023-05-10T06:53:05;9.73;;;8.20;;
12774;SDS011;6451;42.630;23.382;2023-05-10T06:55:32;10.30;;;8.27;;
12774;SDS011;6451;42.630;23.382;2023-05-10T06:58:00;9.40;;;8.40;;
12774;SDS011;6451;42.630;23.382;2023-05-10T07:00:27;9.87;;;7.90;;
12774;SDS011;6451;42.630;23.382;2023-05-10T07:02:54;9.47;;;7.93;;
12774;SDS011;6451;42.630;23.382;2023-05-10T07:05:21;8.97;;;8.07;;
12774;SDS011;6451;42.630;23.382;2023-05-10T07:07:48;10.37;;;8.33;;
12774;SDS011;6451;42.630;23.382;2023-05-10T07:10:18;11.43;;;8.77;;
12774;SDS011;6451;42.630;23.382;2023-05-10T07:12:45;9.23;;;8.33;;
12774;SDS011;6451;42.630;23.382;2023-05-10T07:15:12;8.77;;;7.87;;
12774;SDS011;6451;42.630;23.382;2023-05-10T07:17:39;9.40;;;8.40;;
12774;SDS011;6451;42.630;23.382;2023-05-10T07:20:07;8.27;;;7.47;;
12774;SDS011;6451;42.630;23.382;2023-05-10T07:22:35;10.33;;;9.33;;
12774;SDS011;6451;42.630;23.382;2023-05-10T07:25:03;9.63;;;8.47;;
12774;SDS011;6451;42.630;23.382;2023-05-10T07:27:32;10.00;;;9.00;;
12774;SDS011;6451;42.630;23.382;2023-05-10T07:29:59;11.73;;;9.40;;
12774;SDS011;6451;42.630;23.382;2023-05-10T07:32:26;11.70;;;9.50;;
12774;SDS011;6451;42.630;23.382;2023-05-10T07:34:53;11.20;;;9.93;;
12774;SDS011;6451;42.630;23.382;2023-05-10T07:37:20;10.50;;;9.53;;
12774;SDS011;6451;42.630;23.382;2023-05-10T07:39:47;9.97;;;8.47;;
12774;SDS011;6451;42.630;23.382;2023-05-10T07:42:14;10.30;;;8.90;;
12774;SDS011;6451;42.630;23.382;2023-05-10T07:44:42;11.10;;;9.67;;
12774;SDS011;6451;42.630;23.382;2023-05-10T07:47:10;10.67;;;9.53;;
12774;SDS011;6451;42.630;23.382;2023-05-10T07:49:38;10.23;;;8.90;;
12774;SDS011;6451;42.630;23.382;2023-05-10T07:52:05;10.47;;;9.33;;
12774;SDS011;6451;42.630;23.382;2023-05-10T07:54:32;11.40;;;9.43;;
12774;SDS011;6451;42.630;23.382;2023-05-10T07:57:00;13.03;;;9.80;;
12774;SDS011;6451;42.630;23.382;2023-05-10T07:59:27;10.50;;;9.50;;
12774;SDS011;6451;42.630;23.382;2023-05-10T08:01:56;14.17;;;10.07;;
12774;SDS011;6451;42.630;23.382;2023-05-10T08:04:23;10.83;;;9.83;;
12774;SDS011;6451;42.630;23.382;2023-05-10T08:09:20;10.67;;;9.67;;
12774;SDS011;6451;42.630;23.382;2023-05-10T08:11:49;13.27;;;9.87;;
12774;SDS011;6451;42.630;23.382;2023-05-10T08:14:16;10.40;;;9.40;;
12774;SDS011;6451;42.630;23.382;2023-05-10T08:16:43;10.23;;;9.17;;
12774;SDS011;6451;42.630;23.382;2023-05-10T08:19:11;11.53;;;9.17;;
12774;SDS011;6451;42.630;23.382;2023-05-10T08:21:38;11.90;;;9.87;;
12774;SDS011;6451;42.630;23.382;2023-05-10T08:24:08;10.70;;;8.70;;
12774;SDS011;6451;42.630;23.382;2023-05-10T08:26:35;9.87;;;8.87;;
12774;SDS011;6451;42.630;23.382;2023-05-10T08:29:02;9.60;;;8.63;;
12774;SDS011;6451;42.630;23.382;2023-05-10T08:31:29;9.53;;;8.40;;
12774;SDS011;6451;42.630;23.382;2023-05-10T08:33:56;9.83;;;8.73;;
12774;SDS011;6451;42.630;23.382;2023-05-10T08:36:24;10.07;;;8.90;;
12774;SDS011;6451;42.630;23.382;2023-05-10T08:38:51;9.00;;;8.10;;
12774;SDS011;6451;42.630;23.382;2023-05-10T08:41:19;10.47;;;8.50;;
12774;SDS011;6451;42.630;23.382;2023-05-10T08:43:49;9.80;;;8.20;;
12774;SDS011;6451;42.630;23.382;2023-05-10T08:46:17;10.93;;;8.80;;
12774;SDS011;6451;42.630;23.382;2023-05-10T08:48:44;9.87;;;8.03;;
12774;SDS011;6451;42.630;23.382;2023-05-10T08:51:12;9.60;;;8.70;;
12774;SDS011;6451;42.630;23.382;2023-05-10T08:53:43;9.90;;;8.90;;
12774;SDS011;6451;42.630;23.382;2023-05-10T08:56:11;9.53;;;8.63;;
12774;SDS011;6451;42.630;23.382;2023-05-10T08:58:38;9.80;;;8.27;;
12774;SDS011;6451;42.630;23.382;2023-05-10T09:01:06;9.73;;;8.83;;
12774;SDS011;6451;42.630;23.382;2023-05-10T09:03:35;10.70;;;9.57;;
12774;SDS011;6451;42.630;23.382;2023-05-10T09:06:04;11.57;;;10.37;;
12774;SDS011;6451;42.630;23.382;2023-05-10T09:08:32;11.23;;;9.20;;
12774;SDS011;6451;42.630;23.382;2023-05-10T09:11:00;10.93;;;9.87;;
12774;SDS011;6451;42.630;23.382;2023-05-10T09:13:28;10.03;;;9.03;;
12774;SDS011;6451;42.630;23.382;2023-05-10T09:15:55;10.50;;;9.47;;
12774;SDS011;6451;42.630;23.382;2023-05-10T09:18:22;10.57;;;9.20;;
12774;SDS011;6451;42.630;23.382;2023-05-10T09:20:49;11.07;;;9.23;;
12774;SDS011;6451;42.630;23.382;2023-05-10T09:23:17;10.97;;;9.60;;
12774;SDS011;6451;42.630;23.382;2023-05-10T09:25:44;10.20;;;9.20;;
12774;SDS011;6451;42.630;23.382;2023-05-10T09:28:12;11.03;;;9.93;;
12774;SDS011;6451;42.630;23.382;2023-05-10T09:30:39;13.17;;;10.30;;
12774;SDS011;6451;42.630;23.382;2023-05-10T09:33:08;11.17;;;9.27;;
12774;SDS011;6451;42.630;23.382;2023-05-10T09:35:35;10.23;;;9.23;;
12774;SDS011;6451;42.630;23.382;2023-05-10T09:38:05;10.17;;;9.10;;
12774;SDS011;6451;42.630;23.382;2023-05-10T09:40:32;10.77;;;8.93;;
12774;SDS011;6451;42.630;23.382;2023-05-10T09:42:59;10.37;;;8.73;;
12774;SDS011;6451;42.630;23.382;2023-05-10T09:45:29;9.83;;;8.83;;
12774;SDS011;6451;42.630;23.382;2023-05-10T09:47:57;9.50;;;8.60;;
12774;SDS011;6451;42.630;23.382;2023-05-10T09:50:25;10.57;;;8.60;;
12774;SDS011;6451;42.630;23.382;2023-05-10T09:52:54;10.23;;;9.10;;
12774;SDS011;6451;42.630;23.382;2023-05-10T09:55:25;9.73;;;7.90;;
12774;SDS011;6451;42.630;23.382;2023-05-10T09:57:58;10.10;;;8.10;;
12774;SDS011;6451;42.630;23.382;2023-05-10T10:00:33;10.33;;;9.13;;
12774;SDS011;6451;42.630;23.382;2023-05-10T10:03:01;9.77;;;8.90;;
12774;SDS011;6451;42.630;23.382;2023-05-10T10:05:29;9.30;;;8.50;;
12774;SDS011;6451;42.630;23.382;2023-05-10T10:07:57;9.10;;;8.20;;
12774;SDS011;6451;42.630;23.382;2023-05-10T10:10:25;9.43;;;7.50;;
12774;SDS011;6451;42.630;23.382;2023-05-10T10:12:52;8.90;;;7.33;;
12774;SDS011;6451;42.630;23.382;2023-05-10T10:15:20;8.40;;;7.20;;
12774;SDS011;6451;42.630;23.382;2023-05-10T10:17:49;7.53;;;6.83;;
12774;SDS011;6451;42.630;23.382;2023-05-10T10:20:18;9.13;;;8.07;;
12774;SDS011;6451;42.630;23.382;2023-05-10T10:22:46;8.83;;;7.43;;
12774;SDS011;6451;42.630;23.382;2023-05-10T10:25:14;9.43;;;7.07;;
12774;SDS011;6451;42.630;23.382;2023-05-10T10:27:45;7.33;;;6.37;;
12774;SDS011;6451;42.630;23.382;2023-05-10T10:30:23;8.30;;;6.90;;
12774;SDS011;6451;42.630;23.382;2023-05-10T10:35:57;7.97;;;6.47;;
12774;SDS011;6451;42.630;23.382;2023-05-10T10:38:34;7.30;;;6.60;;
12774;SDS011;6451;42.630;23.382;2023-05-10T10:41:06;10.73;;;7.10;;
12774;SDS011;6451;42.630;23.382;2023-05-10T10:43:37;7.00;;;6.40;;
12774;SDS011;6451;42.630;23.382;2023-05-10T10:46:09;8.03;;;6.70;;
12774;SDS011;6451;42.630;23.382;2023-05-10T10:48:41;7.20;;;6.50;;
12774;SDS011;6451;42.630;23.382;2023-05-10T10:51:14;7.13;;;6.43;;
12774;SDS011;6451;42.630;23.382;2023-05-10T10:53:42;8.10;;;7.20;;
12774;SDS011;6451;42.630;23.382;2023-05-10T10:56:10;8.20;;;7.40;;
12774;SDS011;6451;42.630;23.382;2023-05-10T10:58:38;7.20;;;6.50;;
12774;SDS011;6451;42.630;23.382;2023-05-10T11:01:10;7.83;;;6.80;;
12774;SDS011;6451;42.630;23.382;2023-05-10T11:03:38;8.23;;;6.97;;
12774;SDS011;6451;42.630;23.382;2023-05-10T11:06:07;7.40;;;6.70;;
12774;SDS011;6451;42.630;23.382;2023-05-10T11:08:34;7.80;;;6.60;;
12774;SDS011;6451;42.630;23.382;2023-05-10T11:11:14;7.57;;;6.20;;
12774;SDS011;6451;42.630;23.382;2023-05-10T11:13:41;7.83;;;7.03;;
12774;SDS011;6451;42.630;23.382;2023-05-10T11:16:10;9.10;;;8.00;;
12774;SDS011;6451;42.630;23.382;2023-05-10T11:18:38;9.47;;;8.57;;
12774;SDS011;6451;42.630;23.382;2023-05-10T11:21:09;9.83;;;7.90;;
12774;SDS011;6451;42.630;23.382;2023-05-10T11:23:49;9.80;;;7.77;;
12774;SDS011;6451;42.630;23.382;2023-05-10T11:26:19;7.53;;;6.80;;
12774;SDS011;6451;42.630;23.382;2023-05-10T11:28:48;7.50;;;6.90;;
12774;SDS011;6451;42.630;23.382;2023-05-10T11:31:16;7.63;;;6.60;;
12774;SDS011;6451;42.630;23.382;2023-05-10T11:33:45;8.90;;;6.90;;
12774;SDS011;6451;42.630;23.382;2023-05-10T11:36:15;6.93;;;6.17;;
12774;SDS011;6451;42.630;23.382;2023-05-10T11:38:43;7.67;;;6.37;;
12774;SDS011;6451;42.630;23.382;2023-05-10T11:41:10;7.43;;;6.03;;
12774;SDS011;6451;42.630;23.382;2023-05-10T11:43:39;8.93;;;6.47;;
12774;SDS011;6451;42.630;23.382;2023-05-10T11:46:07;8.23;;;7.43;;
12774;SDS011;6451;42.630;23.382;2023-05-10T11:48:36;9.40;;;7.30;;
12774;SDS011;6451;42.630;23.382;2023-05-10T11:51:05;8.33;;;7.17;;
12774;SDS011;6451;42.630;23.382;2023-05-10T11:53:34;7.83;;;7.03;;
12774;SDS011;6451;42.630;23.382;2023-05-10T11:56:05;9.13;;;7.67;;
12774;SDS011;6451;42.630;23.382;2023-05-10T11:58:32;10.17;;;7.73;;
12774;SDS011;6451;42.630;23.382;2023-05-10T12:01:00;9.03;;;8.10;;
12774;SDS011;6451;42.630;23.382;2023-05-10T12:03:28;9.30;;;8.40;;
12774;SDS011;6451;42.630;23.382;2023-05-10T12:05:56;8.20;;;7.47;;
12774;SDS011;6451;42.630;23.382;2023-05-10T12:08:24;11.17;;;8.03;;
12774;SDS011;6451;42.630;23.382;2023-05-10T12:11:03;9.20;;;8.20;;
12774;SDS011;6451;42.630;23.382;2023-05-10T12:13:31;9.90;;;7.23;;
12774;SDS011;6451;42.630;23.382;2023-05-10T12:15:58;10.67;;;7.70;;
12774;SDS011;6451;42.630;23.382;2023-05-10T12:18:25;8.67;;;7.43;;
12774;SDS011;6451;42.630;23.382;2023-05-10T12:20:52;8.53;;;7.33;;
12774;SDS011;6451;42.630;23.382;2023-05-10T12:23:20;9.90;;;8.00;;
12774;SDS011;6451;42.630;23.382;2023-05-10T12:25:47;9.63;;;7.27;;
12774;SDS011;6451;42.630;23.382;2023-05-10T12:28:15;10.53;;;7.30;;
12774;SDS011;6451;42.630;23.382;2023-05-10T12:30:46;9.57;;;8.30;;
12774;SDS011;6451;42.630;23.382;2023-05-10T12:33:14;8.27;;;7.43;;
12774;SDS011;6451;42.630;23.382;2023-05-10T12:35:45;10.23;;;7.50;;
12774;SDS011;6451;42.630;23.382;2023-05-10T12:38:26;9.00;;;7.03;;
12774;SDS011;6451;42.630;23.382;2023-05-10T12:40:56;8.50;;;7.47;;
12774;SDS011;6451;42.630;23.382;2023-05-10T12:43:25;7.63;;;6.83;;
12774;SDS011;6451;42.630;23.382;2023-05-10T12:45:52;8.07;;;7.27;;
12774;SDS011;6451;42.630;23.382;2023-05-10T12:48:20;7.60;;;6.90;;
12774;SDS011;6451;42.630;23.382;2023-05-10T12:50:47;9.00;;;7.80;;
12774;SDS011;6451;42.630;23.382;2023-05-10T12:53:14;10.97;;;8.03;;
12774;SDS011;6451;42.630;23.382;2023-05-10T12:55:42;8.00;;;6.20;;
12774;SDS011;6451;42.630;23.382;2023-05-10T12:58:09;8.23;;;6.50;;
12774;SDS011;6451;42.630;23.382;2023-05-10T13:00:37;8.37;;;6.97;;
12774;SDS011;6451;42.630;23.382;2023-05-10T13:03:04;7.83;;;7.03;;
12774;SDS011;6451;42.630;23.382;2023-05-10T13:05:31;7.80;;;6.97;;
12774;SDS011;6451;42.630;23.382;2023-05-10T13:07:58;7.37;;;6.60;;
12774;SDS011;6451;42.630;23.382;2023-05-10T13:10:25;8.13;;;6.37;;
12774;SDS011;6451;42.630;23.382;2023-05-10T13:12:52;7.13;;;6.30;;
12774;SDS011;6451;42.630;23.382;2023-05-10T13:15:19;8.10;;;6.47;;
12774;SDS011;6451;42.630;23.382;2023-05-10T13:17:48;9.03;;;6.80;;
12774;SDS011;6451;42.630;23.382;2023-05-10T13:20:15;8.03;;;6.53;;
12774;SDS011;6451;42.630;23.382;2023-05-10T13:22:42;8.90;;;6.23;;
12774;SDS011;6451;42.630;23.382;2023-05-10T13:25:09;7.33;;;6.50;;
12774;SDS011;6451;42.630;23.382;2023-05-10T13:27:38;6.67;;;5.97;;
12774;SDS011;6451;42.630;23.382;2023-05-10T13:30:06;7.30;;;6.57;;
12774;SDS011;6451;42.630;23.382;2023-05-10T13:32:33;8.13;;;6.77;;
12774;SDS011;6451;42.630;23.382;2023-05-10T13:35:02;6.70;;;5.93;;
12774;SDS011;6451;42.630;23.382;2023-05-10T13:37:30;7.27;;;6.37;;
12774;SDS011;6451;42.630;23.382;2023-05-10T13:40:00;7.10;;;6.40;;
12774;SDS011;6451;42.630;23.382;2023-05-10T13:42:27;7.07;;;6.37;;
12774;SDS011;6451;42.630;23.382;2023-05-10T13:44:54;7.43;;;6.73;;
12774;SDS011;6451;42.630;23.382;2023-05-10T13:47:21;8.50;;;7.00;;
12774;SDS011;6451;42.630;23.382;2023-05-10T13:49:48;8.33;;;7.43;;
12774;SDS011;6451;42.630;23.382;2023-05-10T13:52:17;11.73;;;7.10;;
12774;SDS011;6451;42.630;23.382;2023-05-10T13:54:43;7.70;;;6.90;;
12774;SDS011;6451;42.630;23.382;2023-05-10T13:57:11;7.77;;;7.00;;
12774;SDS011;6451;42.630;23.382;2023-05-10T13:59:39;7.70;;;6.20;;
12774;SDS011;6451;42.630;23.382;2023-05-10T14:02:06;7.37;;;6.70;;
12774;SDS011;6451;42.630;23.382;2023-05-10T14:04:33;7.20;;;6.50;;
12774;SDS011;6451;42.630;23.382;2023-05-10T14:07:00;8.30;;;7.10;;
12774;SDS011;6451;42.630;23.382;2023-05-10T14:09:30;7.37;;;6.67;;
12774;SDS011;6451;42.630;23.382;2023-05-10T14:11:57;12.07;;;7.20;;
12774;SDS011;6451;42.630;23.382;2023-05-10T14:14:24;8.33;;;7.00;;
12774;SDS011;6451;42.630;23.382;2023-05-10T14:16:51;8.83;;;7.23;;
12774;SDS011;6451;42.630;23.382;2023-05-10T14:19:18;8.10;;;7.40;;
12774;SDS011;6451;42.630;23.382;2023-05-10T14:21:45;8.03;;;6.97;;
12774;SDS011;6451;42.630;23.382;2023-05-10T14:24:12;7.27;;;6.50;;
12774;SDS011;6451;42.630;23.382;2023-05-10T14:26:40;8.17;;;7.10;;
12774;SDS011;6451;42.630;23.382;2023-05-10T14:29:07;10.33;;;7.60;;
12774;SDS011;6451;42.630;23.382;2023-05-10T14:31:34;8.73;;;7.17;;
12774;SDS011;6451;42.630;23.382;2023-05-10T14:34:01;7.50;;;6.70;;
12774;SDS011;6451;42.630;23.382;2023-05-10T14:36:28;9.00;;;7.00;;
12774;SDS011;6451;42.630;23.382;2023-05-10T14:38:55;10.00;;;7.13;;
12774;SDS011;6451;42.630;23.382;2023-05-10T14:41:22;7.93;;;7.07;;
12774;SDS011;6451;42.630;23.382;2023-05-10T14:43:52;8.17;;;7.13;;
12774;SDS011;6451;42.630;23.382;2023-05-10T14:46:19;10.43;;;7.77;;
12774;SDS011;6451;42.630;23.382;2023-05-10T14:48:46;8.90;;;8.00;;
12774;SDS011;6451;42.630;23.382;2023-05-10T14:51:13;9.80;;;7.37;;
12774;SDS011;6451;42.630;23.382;2023-05-10T14:53:40;7.50;;;6.80;;
12774;SDS011;6451;42.630;23.382;2023-05-10T14:56:07;8.90;;;6.97;;
12774;SDS011;6451;42.630;23.382;2023-05-10T14:58:34;7.60;;;6.77;;
12774;SDS011;6451;42.630;23.382;2023-05-10T15:01:03;8.23;;;7.17;;
12774;SDS011;6451;42.630;23.382;2023-05-10T15:03:30;9.17;;;6.97;;
12774;SDS011;6451;42.630;23.382;2023-05-10T15:05:57;7.97;;;7.17;;
12774;SDS011;6451;42.630;23.382;2023-05-10T15:08:24;7.77;;;7.00;;
12774;SDS011;6451;42.630;23.382;2023-05-10T15:10:51;11.93;;;7.47;;